sensor_id;sensor_type;location;lat;lon;timestamp;temperature;humidity
5938;DHT22;2994;51.220;4.412;2024-03-02T00:00:15;10.78;73.51
5938;DHT22;2994;51.220;4.412;2024-03-02T00:02:44;10.79;73.49
5938;DHT22;2994;51.220;4.412;2024-03-02T00:05:12;10.73;73.48
5938;DHT22;2994;51.220;4.412;2024-03-02T00:07:38;10.74;73.68
5938;DHT22;2994;51.220;4.412;2024-03-02T00:10:08;10.69;73.79
5938;DHT22;2994;51.220;4.412;2024-03-02T00:12:36;10.70;73.85
5938;DHT22;2994;51.220;4.412;2024-03-02T00:15:01;10.67;73.93
5938;DHT22;2994;51.220;4.412;2024-03-02T00:17:28;10.69;73.88
5938;DHT22;2994;51.220;4.412;2024-03-02T00:19:54;10.67;73.84
5938;DHT22;2994;51.220;4.412;2024-03-02T00:22:20;10.66;73.78
5938;DHT22;2994;51.220;4.412;2024-03-02T00:24:45;10.66;73.57
5938;DHT22;2994;51.220;4.412;2024-03-02T00:27:13;10.65;73.42
5938;DHT22;2994;51.220;4.412;2024-03-02T00:29:40;10.65;73.35
5938;DHT22;2994;51.220;4.412;2024-03-02T00:32:12;10.66;73.01
5938;DHT22;2994;51.220;4.412;2024-03-02T00:34:38;10.64;72.90
5938;DHT22;2994;51.220;4.412;2024-03-02T00:37:04;10.65;72.95
5938;DHT22;2994;51.220;4.412;2024-03-02T00:39:30;10.60;73.01
5938;DHT22;2994;51.220;4.412;2024-03-02T00:41:55;10.66;72.83
5938;DHT22;2994;51.220;4.412;2024-03-02T00:44:25;10.65;72.84
5938;DHT22;2994;51.220;4.412;2024-03-02T00:46:51;10.66;72.86
5938;DHT22;2994;51.220;4.412;2024-03-02T00:49:22;10.58;72.99
5938;DHT22;2994;51.220;4.412;2024-03-02T00:51:49;10.59;72.97
5938;DHT22;2994;51.220;4.412;2024-03-02T00:54:15;10.59;72.94
5938;DHT22;2994;51.220;4.412;2024-03-02T00:56:44;10.60;72.99
5938;DHT22;2994;51.220;4.412;2024-03-02T00:59:10;10.59;72.99
5938;DHT22;2994;51.220;4.412;2024-03-02T01:01:35;10.58;73.01
5938;DHT22;2994;51.220;4.412;2024-03-02T01:04:01;10.58;73.02
5938;DHT22;2994;51.220;4.412;2024-03-02T01:06:26;10.56;73.07
5938;DHT22;2994;51.220;4.412;2024-03-02T01:08:52;10.56;72.87
5938;DHT22;2994;51.220;4.412;2024-03-02T01:11:18;10.56;73.05
5938;DHT22;2994;51.220;4.412;2024-03-02T01:13:44;10.58;73.03
5938;DHT22;2994;51.220;4.412;2024-03-02T01:16:10;10.59;73.08
5938;DHT22;2994;51.220;4.412;2024-03-02T01:18:35;10.60;72.96
5938;DHT22;2994;51.220;4.412;2024-03-02T01:21:00;10.60;72.93
5938;DHT22;2994;51.220;4.412;2024-03-02T01:23:26;10.62;72.93
5938;DHT22;2994;51.220;4.412;2024-03-02T01:25:52;10.60;72.99
5938;DHT22;2994;51.220;4.412;2024-03-02T01:28:19;10.56;73.06
5938;DHT22;2994;51.220;4.412;2024-03-02T01:30:46;10.52;72.95
5938;DHT22;2994;51.220;4.412;2024-03-02T01:33:11;10.54;72.83
5938;DHT22;2994;51.220;4.412;2024-03-02T01:35:37;10.57;72.74
5938;DHT22;2994;51.220;4.412;2024-03-02T01:38:03;10.59;72.64
5938;DHT22;2994;51.220;4.412;2024-03-02T01:40:28;10.58;72.64
5938;DHT22;2994;51.220;4.412;2024-03-02T01:42:55;10.59;72.44
5938;DHT22;2994;51.220;4.412;2024-03-02T01:45:21;10.55;72.38
5938;DHT22;2994;51.220;4.412;2024-03-02T01:47:47;10.59;72.29
5938;DHT22;2994;51.220;4.412;2024-03-02T01:50:12;10.59;72.10
5938;DHT22;2994;51.220;4.412;2024-03-02T01:52:38;10.59;71.89
5938;DHT22;2994;51.220;4.412;2024-03-02T01:55:04;10.54;71.91
5938;DHT22;2994;51.220;4.412;2024-03-02T01:57:30;10.54;72.00
5938;DHT22;2994;51.220;4.412;2024-03-02T01:59:56;10.52;71.97
5938;DHT22;2994;51.220;4.412;2024-03-02T02:02:21;10.54;72.02
5938;DHT22;2994;51.220;4.412;2024-03-02T02:04:47;10.55;71.98
5938;DHT22;2994;51.220;4.412;2024-03-02T02:07:13;10.58;72.02
5938;DHT22;2994;51.220;4.412;2024-03-02T02:09:42;10.57;72.00
5938;DHT22;2994;51.220;4.412;2024-03-02T02:12:09;10.57;71.60
5938;DHT22;2994;51.220;4.412;2024-03-02T02:14:34;10.57;71.68
5938;DHT22;2994;51.220;4.412;2024-03-02T02:17:00;10.57;71.71
5938;DHT22;2994;51.220;4.412;2024-03-02T02:19:25;10.55;71.60
5938;DHT22;2994;51.220;4.412;2024-03-02T02:21:51;10.55;71.45
5938;DHT22;2994;51.220;4.412;2024-03-02T02:24:16;10.51;71.44
5938;DHT22;2994;51.220;4.412;2024-03-02T02:26:41;10.56;71.09
5938;DHT22;2994;51.220;4.412;2024-03-02T02:29:07;10.58;70.72
5938;DHT22;2994;51.220;4.412;2024-03-02T02:31:42;10.57;70.76
5938;DHT22;2994;51.220;4.412;2024-03-02T02:34:07;10.58;70.57
5938;DHT22;2994;51.220;4.412;2024-03-02T02:36:37;10.57;70.52
5938;DHT22;2994;51.220;4.412;2024-03-02T02:39:04;10.55;70.59
5938;DHT22;2994;51.220;4.412;2024-03-02T02:41:30;10.51;70.33
5938;DHT22;2994;51.220;4.412;2024-03-02T02:43:56;10.52;70.22
5938;DHT22;2994;51.220;4.412;2024-03-02T02:46:21;10.52;70.15
5938;DHT22;2994;51.220;4.412;2024-03-02T02:48:47;10.54;70.15
5938;DHT22;2994;51.220;4.412;2024-03-02T02:51:12;10.50;70.12
5938;DHT22;2994;51.220;4.412;2024-03-02T02:53:38;10.50;70.32
5938;DHT22;2994;51.220;4.412;2024-03-02T02:56:09;10.51;70.17
5938;DHT22;2994;51.220;4.412;2024-03-02T02:58:34;10.52;70.12
5938;DHT22;2994;51.220;4.412;2024-03-02T03:01:00;10.52;70.26
5938;DHT22;2994;51.220;4.412;2024-03-02T03:03:26;10.53;70.35
5938;DHT22;2994;51.220;4.412;2024-03-02T03:05:51;10.55;70.25
5938;DHT22;2994;51.220;4.412;2024-03-02T03:08:16;10.43;70.26
5938;DHT22;2994;51.220;4.412;2024-03-02T03:10:42;10.51;70.10
5938;DHT22;2994;51.220;4.412;2024-03-02T03:13:08;10.49;70.23
5938;DHT22;2994;51.220;4.412;2024-03-02T03:15:37;10.51;70.28
5938;DHT22;2994;51.220;4.412;2024-03-02T03:18:03;10.53;70.17
5938;DHT22;2994;51.220;4.412;2024-03-02T03:20:29;10.37;70.38
5938;DHT22;2994;51.220;4.412;2024-03-02T03:22:55;10.42;70.20
5938;DHT22;2994;51.220;4.412;2024-03-02T03:25:21;10.43;70.09
5938;DHT22;2994;51.220;4.412;2024-03-02T03:27:46;10.48;69.97
5938;DHT22;2994;51.220;4.412;2024-03-02T03:30:12;10.43;69.99
5938;DHT22;2994;51.220;4.412;2024-03-02T03:32:38;10.45;70.00
5938;DHT22;2994;51.220;4.412;2024-03-02T03:35:04;10.43;69.90
5938;DHT22;2994;51.220;4.412;2024-03-02T03:37:30;10.44;70.07
5938;DHT22;2994;51.220;4.412;2024-03-02T03:40:02;10.45;70.07
5938;DHT22;2994;51.220;4.412;2024-03-02T03:42:28;10.45;69.95
5938;DHT22;2994;51.220;4.412;2024-03-02T03:44:53;10.45;70.00
5938;DHT22;2994;51.220;4.412;2024-03-02T03:47:19;10.46;70.01
5938;DHT22;2994;51.220;4.412;2024-03-02T03:49:45;10.44;70.09
5938;DHT22;2994;51.220;4.412;2024-03-02T03:52:10;10.48;70.03
5938;DHT22;2994;51.220;4.412;2024-03-02T03:54:36;10.48;70.00
5938;DHT22;2994;51.220;4.412;2024-03-02T03:57:03;10.52;70.00
5938;DHT22;2994;51.220;4.412;2024-03-02T03:59:29;10.48;70.07
5938;DHT22;2994;51.220;4.412;2024-03-02T04:01:54;10.44;69.96
5938;DHT22;2994;51.220;4.412;2024-03-02T04:04:20;10.46;69.88
5938;DHT22;2994;51.220;4.412;2024-03-02T04:06:45;10.49;69.84
5938;DHT22;2994;51.220;4.412;2024-03-02T04:09:11;10.45;69.68
5938;DHT22;2994;51.220;4.412;2024-03-02T04:11:36;10.45;69.82
5938;DHT22;2994;51.220;4.412;2024-03-02T04:14:01;10.44;69.66
5938;DHT22;2994;51.220;4.412;2024-03-02T04:16:27;10.40;69.73
5938;DHT22;2994;51.220;4.412;2024-03-02T04:18:54;10.35;69.78
5938;DHT22;2994;51.220;4.412;2024-03-02T04:21:19;10.33;69.99
5938;DHT22;2994;51.220;4.412;2024-03-02T04:23:45;10.28;70.07
5938;DHT22;2994;51.220;4.412;2024-03-02T04:26:10;10.27;69.98
5938;DHT22;2994;51.220;4.412;2024-03-02T04:28:35;10.27;70.17
5938;DHT22;2994;51.220;4.412;2024-03-02T04:31:01;10.28;70.22
5938;DHT22;2994;51.220;4.412;2024-03-02T04:33:26;10.27;70.07
5938;DHT22;2994;51.220;4.412;2024-03-02T04:35:52;10.29;70.03
5938;DHT22;2994;51.220;4.412;2024-03-02T04:38:17;10.28;70.09
5938;DHT22;2994;51.220;4.412;2024-03-02T04:40:43;10.26;69.96
5938;DHT22;2994;51.220;4.412;2024-03-02T04:43:08;10.29;69.79
5938;DHT22;2994;51.220;4.412;2024-03-02T04:45:34;10.24;69.94
5938;DHT22;2994;51.220;4.412;2024-03-02T04:48:03;10.25;69.94
5938;DHT22;2994;51.220;4.412;2024-03-02T04:50:28;10.22;70.07
5938;DHT22;2994;51.220;4.412;2024-03-02T04:52:54;10.23;70.12
5938;DHT22;2994;51.220;4.412;2024-03-02T04:55:19;10.21;70.23
5938;DHT22;2994;51.220;4.412;2024-03-02T04:58:02;10.23;70.18
5938;DHT22;2994;51.220;4.412;2024-03-02T05:00:28;10.16;70.32
5938;DHT22;2994;51.220;4.412;2024-03-02T05:02:53;10.07;70.37
5938;DHT22;2994;51.220;4.412;2024-03-02T05:05:18;10.14;70.11
5938;DHT22;2994;51.220;4.412;2024-03-02T05:07:44;10.09;70.07
5938;DHT22;2994;51.220;4.412;2024-03-02T05:10:10;10.10;70.13
5938;DHT22;2994;51.220;4.412;2024-03-02T05:12:37;9.99;70.16
5938;DHT22;2994;51.220;4.412;2024-03-02T05:15:13;10.06;69.99
5938;DHT22;2994;51.220;4.412;2024-03-02T05:17:40;10.07;69.95
5938;DHT22;2994;51.220;4.412;2024-03-02T05:20:08;10.08;69.95
5938;DHT22;2994;51.220;4.412;2024-03-02T05:22:34;10.09;69.82
5938;DHT22;2994;51.220;4.412;2024-03-02T05:25:00;10.05;69.68
5938;DHT22;2994;51.220;4.412;2024-03-02T05:27:26;10.06;69.60
5938;DHT22;2994;51.220;4.412;2024-03-02T05:29:52;10.06;69.55
5938;DHT22;2994;51.220;4.412;2024-03-02T05:32:17;10.05;69.73
5938;DHT22;2994;51.220;4.412;2024-03-02T05:34:43;10.05;69.69
5938;DHT22;2994;51.220;4.412;2024-03-02T05:37:08;10.04;69.68
5938;DHT22;2994;51.220;4.412;2024-03-02T05:39:34;10.01;69.78
5938;DHT22;2994;51.220;4.412;2024-03-02T05:41:59;9.99;69.86
5938;DHT22;2994;51.220;4.412;2024-03-02T05:44:25;9.99;69.87
5938;DHT22;2994;51.220;4.412;2024-03-02T05:46:50;9.99;69.87
5938;DHT22;2994;51.220;4.412;2024-03-02T05:49:15;9.98;70.00
5938;DHT22;2994;51.220;4.412;2024-03-02T05:51:41;9.97;69.96
5938;DHT22;2994;51.220;4.412;2024-03-02T05:54:07;9.92;70.12
5938;DHT22;2994;51.220;4.412;2024-03-02T05:56:32;9.91;70.04
5938;DHT22;2994;51.220;4.412;2024-03-02T05:58:58;9.86;70.08
5938;DHT22;2994;51.220;4.412;2024-03-02T06:01:39;9.86;70.05
5938;DHT22;2994;51.220;4.412;2024-03-02T06:04:05;9.75;70.52
5938;DHT22;2994;51.220;4.412;2024-03-02T06:06:30;9.81;70.27
5938;DHT22;2994;51.220;4.412;2024-03-02T06:08:57;9.82;70.13
5938;DHT22;2994;51.220;4.412;2024-03-02T06:11:23;9.76;70.43
5938;DHT22;2994;51.220;4.412;2024-03-02T06:13:50;9.78;70.23
5938;DHT22;2994;51.220;4.412;2024-03-02T06:16:15;9.75;70.26
5938;DHT22;2994;51.220;4.412;2024-03-02T06:18:40;9.74;70.25
5938;DHT22;2994;51.220;4.412;2024-03-02T06:21:06;9.76;70.29
5938;DHT22;2994;51.220;4.412;2024-03-02T06:23:31;9.75;70.13
5938;DHT22;2994;51.220;4.412;2024-03-02T06:25:57;9.75;70.18
5938;DHT22;2994;51.220;4.412;2024-03-02T06:28:22;9.74;70.01
5938;DHT22;2994;51.220;4.412;2024-03-02T06:30:48;9.69;70.14
5938;DHT22;2994;51.220;4.412;2024-03-02T06:33:13;9.71;70.21
5938;DHT22;2994;51.220;4.412;2024-03-02T06:35:39;9.68;69.98
5938;DHT22;2994;51.220;4.412;2024-03-02T06:38:04;9.66;69.96
5938;DHT22;2994;51.220;4.412;2024-03-02T06:40:30;9.62;70.05
5938;DHT22;2994;51.220;4.412;2024-03-02T06:42:55;9.52;70.09
5938;DHT22;2994;51.220;4.412;2024-03-02T06:45:21;9.54;70.23
5938;DHT22;2994;51.220;4.412;2024-03-02T06:47:46;9.52;70.35
5938;DHT22;2994;51.220;4.412;2024-03-02T06:50:12;9.50;70.39
5938;DHT22;2994;51.220;4.412;2024-03-02T06:52:37;9.53;70.32
5938;DHT22;2994;51.220;4.412;2024-03-02T06:55:03;9.51;70.34
5938;DHT22;2994;51.220;4.412;2024-03-02T06:57:29;9.51;70.33
5938;DHT22;2994;51.220;4.412;2024-03-02T06:59:55;9.52;70.25
5938;DHT22;2994;51.220;4.412;2024-03-02T07:02:26;9.53;70.24
5938;DHT22;2994;51.220;4.412;2024-03-02T07:04:53;9.54;70.23
5938;DHT22;2994;51.220;4.412;2024-03-02T07:07:18;9.55;70.19
5938;DHT22;2994;51.220;4.412;2024-03-02T07:09:43;9.51;70.23
5938;DHT22;2994;51.220;4.412;2024-03-02T07:12:09;9.53;70.23
5938;DHT22;2994;51.220;4.412;2024-03-02T07:14:35;9.50;70.32
5938;DHT22;2994;51.220;4.412;2024-03-02T07:17:22;9.51;70.42
5938;DHT22;2994;51.220;4.412;2024-03-02T07:19:48;9.52;70.39
5938;DHT22;2994;51.220;4.412;2024-03-02T07:22:13;9.54;70.28
5938;DHT22;2994;51.220;4.412;2024-03-02T07:24:42;9.55;70.32
5938;DHT22;2994;51.220;4.412;2024-03-02T07:27:09;9.57;70.33
5938;DHT22;2994;51.220;4.412;2024-03-02T07:29:38;9.60;70.24
5938;DHT22;2994;51.220;4.412;2024-03-02T07:32:04;9.47;70.46
5938;DHT22;2994;51.220;4.412;2024-03-02T07:34:30;9.53;70.24
5938;DHT22;2994;51.220;4.412;2024-03-02T07:36:56;9.49;70.42
5938;DHT22;2994;51.220;4.412;2024-03-02T07:39:21;9.51;70.25
5938;DHT22;2994;51.220;4.412;2024-03-02T07:41:47;9.52;70.22
5938;DHT22;2994;51.220;4.412;2024-03-02T07:44:12;9.54;70.23
5938;DHT22;2994;51.220;4.412;2024-03-02T07:46:42;9.56;70.25
5938;DHT22;2994;51.220;4.412;2024-03-02T07:49:08;9.52;70.30
5938;DHT22;2994;51.220;4.412;2024-03-02T07:51:34;9.49;70.48
5938;DHT22;2994;51.220;4.412;2024-03-02T07:53:59;9.50;70.52
5938;DHT22;2994;51.220;4.412;2024-03-02T07:56:25;9.42;70.79
5938;DHT22;2994;51.220;4.412;2024-03-02T07:58:50;9.42;70.73
5938;DHT22;2994;51.220;4.412;2024-03-02T08:01:15;9.46;70.70
5938;DHT22;2994;51.220;4.412;2024-03-02T08:03:42;9.57;70.24
5938;DHT22;2994;51.220;4.412;2024-03-02T08:06:08;9.59;70.28
5938;DHT22;2994;51.220;4.412;2024-03-02T08:08:33;9.50;70.52
5938;DHT22;2994;51.220;4.412;2024-03-02T08:10:59;9.61;70.20
5938;DHT22;2994;51.220;4.412;2024-03-02T08:13:24;9.65;70.11
5938;DHT22;2994;51.220;4.412;2024-03-02T08:15:50;9.72;70.10
5938;DHT22;2994;51.220;4.412;2024-03-02T08:18:15;9.83;69.78
5938;DHT22;2994;51.220;4.412;2024-03-02T08:20:41;9.91;69.55
5938;DHT22;2994;51.220;4.412;2024-03-02T08:23:06;9.93;69.39
5938;DHT22;2994;51.220;4.412;2024-03-02T08:25:32;9.90;69.62
5938;DHT22;2994;51.220;4.412;2024-03-02T08:27:58;9.94;69.30
5938;DHT22;2994;51.220;4.412;2024-03-02T08:30:23;10.00;69.23
5938;DHT22;2994;51.220;4.412;2024-03-02T08:32:49;10.00;69.25
5938;DHT22;2994;51.220;4.412;2024-03-02T08:35:14;10.04;69.13
5938;DHT22;2994;51.220;4.412;2024-03-02T08:37:41;10.06;69.16
5938;DHT22;2994;51.220;4.412;2024-03-02T08:40:07;10.15;68.75
5938;DHT22;2994;51.220;4.412;2024-03-02T08:42:33;10.14;68.94
5938;DHT22;2994;51.220;4.412;2024-03-02T08:44:59;10.25;68.45
5938;DHT22;2994;51.220;4.412;2024-03-02T08:47:26;10.11;68.90
5938;DHT22;2994;51.220;4.412;2024-03-02T08:49:52;10.24;68.62
5938;DHT22;2994;51.220;4.412;2024-03-02T08:52:17;10.22;68.65
5938;DHT22;2994;51.220;4.412;2024-03-02T08:54:43;10.36;68.34
5938;DHT22;2994;51.220;4.412;2024-03-02T08:57:08;10.49;68.08
5938;DHT22;2994;51.220;4.412;2024-03-02T08:59:34;10.48;67.73
5938;DHT22;2994;51.220;4.412;2024-03-02T09:01:59;10.37;67.68
5938;DHT22;2994;51.220;4.412;2024-03-02T09:04:25;10.58;67.22
5938;DHT22;2994;51.220;4.412;2024-03-02T09:06:50;10.70;66.80
5938;DHT22;2994;51.220;4.412;2024-03-02T09:09:15;10.74;66.80
5938;DHT22;2994;51.220;4.412;2024-03-02T09:11:41;10.73;66.76
5938;DHT22;2994;51.220;4.412;2024-03-02T09:14:06;10.87;66.01
5938;DHT22;2994;51.220;4.412;2024-03-02T09:16:32;11.00;65.62
5938;DHT22;2994;51.220;4.412;2024-03-02T09:18:57;11.07;65.53
5938;DHT22;2994;51.220;4.412;2024-03-02T09:21:23;11.16;65.18
5938;DHT22;2994;51.220;4.412;2024-03-02T09:23:48;11.22;64.46
5938;DHT22;2994;51.220;4.412;2024-03-02T09:26:14;11.34;64.41
5938;DHT22;2994;51.220;4.412;2024-03-02T09:28:43;11.44;64.30
5938;DHT22;2994;51.220;4.412;2024-03-02T09:31:09;11.43;63.60
5938;DHT22;2994;51.220;4.412;2024-03-02T09:33:34;11.54;62.50
5938;DHT22;2994;51.220;4.412;2024-03-02T09:36:00;11.51;62.01
5938;DHT22;2994;51.220;4.412;2024-03-02T09:38:25;11.58;61.47
5938;DHT22;2994;51.220;4.412;2024-03-02T09:40:53;11.56;61.70
5938;DHT22;2994;51.220;4.412;2024-03-02T09:43:18;11.46;62.19
5938;DHT22;2994;51.220;4.412;2024-03-02T09:45:44;11.67;61.07
5938;DHT22;2994;51.220;4.412;2024-03-02T09:48:10;11.71;61.25
5938;DHT22;2994;51.220;4.412;2024-03-02T09:50:35;11.84;61.21
5938;DHT22;2994;51.220;4.412;2024-03-02T09:53:01;11.94;60.96
5938;DHT22;2994;51.220;4.412;2024-03-02T09:55:27;11.97;60.54
5938;DHT22;2994;51.220;4.412;2024-03-02T09:57:53;12.10;60.29
5938;DHT22;2994;51.220;4.412;2024-03-02T10:00:18;12.05;60.14
5938;DHT22;2994;51.220;4.412;2024-03-02T10:02:44;12.15;59.80
5938;DHT22;2994;51.220;4.412;2024-03-02T10:05:10;12.25;58.87
5938;DHT22;2994;51.220;4.412;2024-03-02T10:07:35;12.25;59.36
5938;DHT22;2994;51.220;4.412;2024-03-02T10:10:13;12.33;58.76
5938;DHT22;2994;51.220;4.412;2024-03-02T10:12:38;12.38;58.76
5938;DHT22;2994;51.220;4.412;2024-03-02T10:15:04;12.42;58.78
5938;DHT22;2994;51.220;4.412;2024-03-02T10:17:31;12.52;58.37
5938;DHT22;2994;51.220;4.412;2024-03-02T10:19:57;12.64;58.51
5938;DHT22;2994;51.220;4.412;2024-03-02T10:22:23;12.70;58.26
5938;DHT22;2994;51.220;4.412;2024-03-02T10:24:48;12.81;58.52
5938;DHT22;2994;51.220;4.412;2024-03-02T10:27:23;12.77;57.50
5938;DHT22;2994;51.220;4.412;2024-03-02T10:29:49;12.81;57.87
5938;DHT22;2994;51.220;4.412;2024-03-02T10:32:15;12.87;58.05
5938;DHT22;2994;51.220;4.412;2024-03-02T10:34:45;12.88;57.83
5938;DHT22;2994;51.220;4.412;2024-03-02T10:37:11;13.06;58.32
5938;DHT22;2994;51.220;4.412;2024-03-02T10:39:37;13.04;57.58
5938;DHT22;2994;51.220;4.412;2024-03-02T10:42:06;13.09;57.33
5938;DHT22;2994;51.220;4.412;2024-03-02T10:44:32;13.23;57.42
5938;DHT22;2994;51.220;4.412;2024-03-02T10:47:03;13.01;57.00
5938;DHT22;2994;51.220;4.412;2024-03-02T10:49:30;13.04;56.86
5938;DHT22;2994;51.220;4.412;2024-03-02T10:52:00;13.10;56.90
5938;DHT22;2994;51.220;4.412;2024-03-02T10:54:25;13.26;56.87
5938;DHT22;2994;51.220;4.412;2024-03-02T10:56:53;13.25;56.52
5938;DHT22;2994;51.220;4.412;2024-03-02T10:59:34;13.29;56.45
5938;DHT22;2994;51.220;4.412;2024-03-02T11:02:01;13.38;56.12
5938;DHT22;2994;51.220;4.412;2024-03-02T11:04:28;13.35;56.13
5938;DHT22;2994;51.220;4.412;2024-03-02T11:07:00;13.27;55.52
5938;DHT22;2994;51.220;4.412;2024-03-02T11:09:27;13.24;55.57
5938;DHT22;2994;51.220;4.412;2024-03-02T11:12:29;13.26;54.93
5938;DHT22;2994;51.220;4.412;2024-03-02T11:14:55;13.40;55.55
5938;DHT22;2994;51.220;4.412;2024-03-02T11:17:21;13.54;55.24
5938;DHT22;2994;51.220;4.412;2024-03-02T11:19:47;13.63;55.65
5938;DHT22;2994;51.220;4.412;2024-03-02T11:22:13;13.49;55.43
5938;DHT22;2994;51.220;4.412;2024-03-02T11:24:48;13.48;55.25
5938;DHT22;2994;51.220;4.412;2024-03-02T11:27:14;13.54;54.47
5938;DHT22;2994;51.220;4.412;2024-03-02T11:32:25;13.63;54.79
5938;DHT22;2994;51.220;4.412;2024-03-02T11:34:50;13.64;53.91
5938;DHT22;2994;51.220;4.412;2024-03-02T11:37:17;13.55;54.12
5938;DHT22;2994;51.220;4.412;2024-03-02T11:39:44;13.75;55.08
5938;DHT22;2994;51.220;4.412;2024-03-02T11:42:11;13.76;54.08
5938;DHT22;2994;51.220;4.412;2024-03-02T11:44:39;13.81;53.45
5938;DHT22;2994;51.220;4.412;2024-03-02T11:47:07;13.83;54.04
5938;DHT22;2994;51.220;4.412;2024-03-02T11:49:48;13.83;53.64
5938;DHT22;2994;51.220;4.412;2024-03-02T11:52:14;13.88;53.27
5938;DHT22;2994;51.220;4.412;2024-03-02T11:54:42;13.75;53.30
5938;DHT22;2994;51.220;4.412;2024-03-02T11:57:18;13.76;53.29
5938;DHT22;2994;51.220;4.412;2024-03-02T11:59:44;13.94;53.22
5938;DHT22;2994;51.220;4.412;2024-03-02T12:02:18;14.08;53.79
5938;DHT22;2994;51.220;4.412;2024-03-02T12:04:44;14.11;53.55
5938;DHT22;2994;51.220;4.412;2024-03-02T12:07:10;14.23;53.78
5938;DHT22;2994;51.220;4.412;2024-03-02T12:09:36;14.27;53.57
5938;DHT22;2994;51.220;4.412;2024-03-02T12:12:06;14.20;53.39
5938;DHT22;2994;51.220;4.412;2024-03-02T12:14:33;14.09;52.91
5938;DHT22;2994;51.220;4.412;2024-03-02T12:16:59;14.21;53.08
5938;DHT22;2994;51.220;4.412;2024-03-02T12:19:26;14.28;52.84
5938;DHT22;2994;51.220;4.412;2024-03-02T12:21:53;14.14;53.10
5938;DHT22;2994;51.220;4.412;2024-03-02T12:24:20;14.18;53.18
5938;DHT22;2994;51.220;4.412;2024-03-02T12:26:46;14.35;52.82
5938;DHT22;2994;51.220;4.412;2024-03-02T12:29:13;14.39;52.46
5938;DHT22;2994;51.220;4.412;2024-03-02T12:31:40;14.52;53.12
5938;DHT22;2994;51.220;4.412;2024-03-02T12:34:06;14.58;52.84
5938;DHT22;2994;51.220;4.412;2024-03-02T12:36:38;14.66;53.10
5938;DHT22;2994;51.220;4.412;2024-03-02T12:39:03;14.78;52.53
5938;DHT22;2994;51.220;4.412;2024-03-02T12:41:29;14.70;52.16
5938;DHT22;2994;51.220;4.412;2024-03-02T12:43:54;14.83;52.59
5938;DHT22;2994;51.220;4.412;2024-03-02T12:46:20;14.67;52.14
5938;DHT22;2994;51.220;4.412;2024-03-02T12:48:45;14.73;52.22
5938;DHT22;2994;51.220;4.412;2024-03-02T12:51:14;14.89;52.24
5938;DHT22;2994;51.220;4.412;2024-03-02T12:53:39;14.93;52.39
5938;DHT22;2994;51.220;4.412;2024-03-02T12:56:05;15.08;52.85
5938;DHT22;2994;51.220;4.412;2024-03-02T12:58:39;15.12;52.65
5938;DHT22;2994;51.220;4.412;2024-03-02T13:01:06;15.19;52.33
5938;DHT22;2994;51.220;4.412;2024-03-02T13:03:38;15.26;52.39
5938;DHT22;2994;51.220;4.412;2024-03-02T13:06:05;15.29;51.82
5938;DHT22;2994;51.220;4.412;2024-03-02T13:08:31;15.30;52.36
5938;DHT22;2994;51.220;4.412;2024-03-02T13:10:56;15.28;52.36
5938;DHT22;2994;51.220;4.412;2024-03-02T13:13:22;15.19;52.44
5938;DHT22;2994;51.220;4.412;2024-03-02T13:15:48;15.21;52.24
5938;DHT22;2994;51.220;4.412;2024-03-02T13:18:13;15.11;52.09
5938;DHT22;2994;51.220;4.412;2024-03-02T13:20:39;15.17;51.67
5938;DHT22;2994;51.220;4.412;2024-03-02T13:23:05;15.00;52.12
5938;DHT22;2994;51.220;4.412;2024-03-02T13:25:31;15.11;52.05
5938;DHT22;2994;51.220;4.412;2024-03-02T13:27:57;15.10;52.26
5938;DHT22;2994;51.220;4.412;2024-03-02T13:30:23;14.95;52.34
5938;DHT22;2994;51.220;4.412;2024-03-02T13:32:49;15.10;52.72
5938;DHT22;2994;51.220;4.412;2024-03-02T13:35:14;15.13;52.46
5938;DHT22;2994;51.220;4.412;2024-03-02T13:37:39;15.16;52.43
5938;DHT22;2994;51.220;4.412;2024-03-02T13:40:05;15.07;51.72
5938;DHT22;2994;51.220;4.412;2024-03-02T13:42:31;14.98;51.58
5938;DHT22;2994;51.220;4.412;2024-03-02T13:44:56;14.89;51.86
5938;DHT22;2994;51.220;4.412;2024-03-02T13:47:24;14.99;52.02
5938;DHT22;2994;51.220;4.412;2024-03-02T13:49:50;15.07;52.33
5938;DHT22;2994;51.220;4.412;2024-03-02T13:52:15;15.08;52.33
5938;DHT22;2994;51.220;4.412;2024-03-02T13:54:45;15.07;51.87
5938;DHT22;2994;51.220;4.412;2024-03-02T13:57:11;15.07;52.57
5938;DHT22;2994;51.220;4.412;2024-03-02T13:59:37;15.02;52.22
5938;DHT22;2994;51.220;4.412;2024-03-02T14:02:04;14.95;52.15
5938;DHT22;2994;51.220;4.412;2024-03-02T14:04:36;14.89;51.90
5938;DHT22;2994;51.220;4.412;2024-03-02T14:07:02;14.83;52.49
5938;DHT22;2994;51.220;4.412;2024-03-02T14:09:27;14.86;52.69
5938;DHT22;2994;51.220;4.412;2024-03-02T14:11:54;14.88;52.91
5938;DHT22;2994;51.220;4.412;2024-03-02T14:14:19;14.95;53.15
5938;DHT22;2994;51.220;4.412;2024-03-02T14:16:45;14.85;52.65
5938;DHT22;2994;51.220;4.412;2024-03-02T14:19:13;14.91;53.03
5938;DHT22;2994;51.220;4.412;2024-03-02T14:21:39;14.95;53.33
5938;DHT22;2994;51.220;4.412;2024-03-02T14:24:05;14.92;52.93
5938;DHT22;2994;51.220;4.412;2024-03-02T14:26:32;14.93;52.85
5938;DHT22;2994;51.220;4.412;2024-03-02T14:29:02;14.95;53.36
5938;DHT22;2994;51.220;4.412;2024-03-02T14:31:28;14.89;52.90
5938;DHT22;2994;51.220;4.412;2024-03-02T14:33:53;14.89;53.46
5938;DHT22;2994;51.220;4.412;2024-03-02T14:36:19;14.93;53.12
5938;DHT22;2994;51.220;4.412;2024-03-02T14:38:45;14.96;53.79
5938;DHT22;2994;51.220;4.412;2024-03-02T14:41:11;14.97;53.39
5938;DHT22;2994;51.220;4.412;2024-03-02T14:43:36;15.02;53.51
5938;DHT22;2994;51.220;4.412;2024-03-02T14:46:03;15.21;53.04
5938;DHT22;2994;51.220;4.412;2024-03-02T14:48:29;15.14;53.14
5938;DHT22;2994;51.220;4.412;2024-03-02T14:50:54;15.18;52.96
5938;DHT22;2994;51.220;4.412;2024-03-02T14:53:20;15.17;52.84
5938;DHT22;2994;51.220;4.412;2024-03-02T15:03:32;15.12;52.75
5938;DHT22;2994;51.220;4.412;2024-03-02T15:05:58;14.92;53.51
5938;DHT22;2994;51.220;4.412;2024-03-02T15:08:23;14.98;53.44
5938;DHT22;2994;51.220;4.412;2024-03-02T15:10:49;15.03;53.58
5938;DHT22;2994;51.220;4.412;2024-03-02T15:13:14;15.10;53.72
5938;DHT22;2994;51.220;4.412;2024-03-02T15:15:40;15.06;54.23
5938;DHT22;2994;51.220;4.412;2024-03-02T15:18:27;15.02;54.55
5938;DHT22;2994;51.220;4.412;2024-03-02T15:23:35;14.80;54.84
5938;DHT22;2994;51.220;4.412;2024-03-02T15:49:42;14.94;57.29
5938;DHT22;2994;51.220;4.412;2024-03-02T15:52:14;14.95;57.45
5938;DHT22;2994;51.220;4.412;2024-03-02T15:54:52;14.91;58.18
5938;DHT22;2994;51.220;4.412;2024-03-02T15:57:36;14.87;59.29
5938;DHT22;2994;51.220;4.412;2024-03-02T16:12:23;14.47;61.70
5938;DHT22;2994;51.220;4.412;2024-03-02T16:18:10;14.43;61.90
5938;DHT22;2994;51.220;4.412;2024-03-02T16:26:34;14.45;61.14
5938;DHT22;2994;51.220;4.412;2024-03-02T16:34:18;14.44;61.65
5938;DHT22;2994;51.220;4.412;2024-03-02T16:37:08;14.45;61.42
5938;DHT22;2994;51.220;4.412;2024-03-02T16:39:33;14.48;61.43
5938;DHT22;2994;51.220;4.412;2024-03-02T16:42:02;14.47;61.63
5938;DHT22;2994;51.220;4.412;2024-03-02T16:44:27;14.49;61.90
5938;DHT22;2994;51.220;4.412;2024-03-02T16:47:02;14.48;61.79
5938;DHT22;2994;51.220;4.412;2024-03-02T16:49:32;14.47;61.83
5938;DHT22;2994;51.220;4.412;2024-03-02T16:52:04;14.45;61.65
5938;DHT22;2994;51.220;4.412;2024-03-02T16:54:29;14.39;61.33
5938;DHT22;2994;51.220;4.412;2024-03-02T16:57:02;14.42;61.45
5938;DHT22;2994;51.220;4.412;2024-03-02T16:59:28;14.39;61.64
5938;DHT22;2994;51.220;4.412;2024-03-02T17:02:02;14.35;61.88
5938;DHT22;2994;51.220;4.412;2024-03-02T17:04:28;14.36;61.60